sensor_id;sensor_type;location;lat;lon;timestamp;P1;durP1;ratioP1;P2;durP2;ratioP2
71916;SDS011;59793;46.506;6.674;2023-08-06T00:00:19;2.47;;;1.43;;
71916;SDS011;59793;46.506;6.674;2023-08-06T00:02:45;2.93;;;1.33;;
71916;SDS011;59793;46.506;6.674;2023-08-06T00:05:10;2.43;;;1.10;;
71916;SDS011;59793;46.506;6.674;2023-08-06T00:07:35;2.80;;;1.27;;
71916;SDS011;59793;46.506;6.674;2023-08-06T00:10:01;2.87;;;1.20;;
71916;SDS011;59793;46.506;6.674;2023-08-06T00:12:26;2.87;;;1.33;;
71916;SDS011;59793;46.506;6.674;2023-08-06T00:14:51;2.43;;;1.20;;
71916;SDS011;59793;46.506;6.674;2023-08-06T00:17:17;2.10;;;1.35;;
71916;SDS011;59793;46.506;6.674;2023-08-06T00:19:42;5.63;;;1.53;;
71916;SDS011;59793;46.506;6.674;2023-08-06T00:22:08;2.13;;;1.20;;
71916;SDS011;59793;46.506;6.674;2023-08-06T00:24:34;2.70;;;1.10;;
71916;SDS011;59793;46.506;6.674;2023-08-06T00:26:59;5.25;;;1.55;;
71916;SDS011;59793;46.506;6.674;2023-08-06T00:29:25;2.60;;;1.30;;
71916;SDS011;59793;46.506;6.674;2023-08-06T00:31:50;2.03;;;1.00;;
71916;SDS011;59793;46.506;6.674;2023-08-06T00:34:15;3.00;;;1.20;;
71916;SDS011;59793;46.506;6.674;2023-08-06T00:36:41;1.77;;;1.10;;
71916;SDS011;59793;46.506;6.674;2023-08-06T00:39:06;3.67;;;1.33;;
71916;SDS011;59793;46.506;6.674;2023-08-06T00:41:32;3.53;;;1.50;;
71916;SDS011;59793;46.506;6.674;2023-08-06T00:43:57;2.97;;;1.60;;
71916;SDS011;59793;46.506;6.674;2023-08-06T00:46:23;1.57;;;1.00;;
71916;SDS011;59793;46.506;6.674;2023-08-06T00:48:48;3.03;;;1.30;;
71916;SDS011;59793;46.506;6.674;2023-08-06T00:51:15;2.38;;;1.30;;
71916;SDS011;59793;46.506;6.674;2023-08-06T00:53:41;2.53;;;1.20;;
71916;SDS011;59793;46.506;6.674;2023-08-06T00:56:07;2.75;;;1.30;;
71916;SDS011;59793;46.506;6.674;2023-08-06T00:58:34;2.08;;;1.08;;
71916;SDS011;59793;46.506;6.674;2023-08-06T01:01:00;3.58;;;1.45;;
71916;SDS011;59793;46.506;6.674;2023-08-06T01:03:25;2.30;;;1.13;;
71916;SDS011;59793;46.506;6.674;2023-08-06T01:05:51;2.50;;;1.00;;
71916;SDS011;59793;46.506;6.674;2023-08-06T01:16:24;2.67;;;1.20;;
71916;SDS011;59793;46.506;6.674;2023-08-06T01:18:50;2.35;;;0.88;;
71916;SDS011;59793;46.506;6.674;2023-08-06T01:21:16;1.90;;;1.00;;
71916;SDS011;59793;46.506;6.674;2023-08-06T01:23:42;2.33;;;1.17;;
71916;SDS011;59793;46.506;6.674;2023-08-06T01:31:30;2.07;;;1.03;;
71916;SDS011;59793;46.506;6.674;2023-08-06T01:34:00;2.53;;;1.27;;
71916;SDS011;59793;46.506;6.674;2023-08-06T01:36:28;1.35;;;0.90;;
71916;SDS011;59793;46.506;6.674;2023-08-06T01:38:53;2.73;;;1.57;;
71916;SDS011;59793;46.506;6.674;2023-08-06T01:41:19;2.10;;;1.20;;
71916;SDS011;59793;46.506;6.674;2023-08-06T01:43:44;3.90;;;1.20;;
71916;SDS011;59793;46.506;6.674;2023-08-06T01:46:10;4.33;;;1.17;;
71916;SDS011;59793;46.506;6.674;2023-08-06T01:48:35;2.03;;;0.80;;
71916;SDS011;59793;46.506;6.674;2023-08-06T01:51:01;1.60;;;0.90;;
71916;SDS011;59793;46.506;6.674;2023-08-06T01:53:28;2.70;;;1.10;;
71916;SDS011;59793;46.506;6.674;2023-08-06T01:55:53;1.50;;;1.13;;
71916;SDS011;59793;46.506;6.674;2023-08-06T01:58:19;4.30;;;1.30;;
71916;SDS011;59793;46.506;6.674;2023-08-06T02:00:44;12.33;;;1.43;;
71916;SDS011;59793;46.506;6.674;2023-08-06T02:03:09;2.03;;;1.00;;
71916;SDS011;59793;46.506;6.674;2023-08-06T02:05:35;4.37;;;1.50;;
71916;SDS011;59793;46.506;6.674;2023-08-06T02:08:00;2.80;;;0.90;;
71916;SDS011;59793;46.506;6.674;2023-08-06T02:10:25;1.93;;;1.00;;
71916;SDS011;59793;46.506;6.674;2023-08-06T02:12:51;2.43;;;0.80;;
71916;SDS011;59793;46.506;6.674;2023-08-06T02:15:16;2.80;;;0.87;;
71916;SDS011;59793;46.506;6.674;2023-08-06T02:17:41;2.60;;;1.03;;
71916;SDS011;59793;46.506;6.674;2023-08-06T02:20:07;3.63;;;1.17;;
71916;SDS011;59793;46.506;6.674;2023-08-06T02:22:32;4.50;;;0.97;;
71916;SDS011;59793;46.506;6.674;2023-08-06T02:24:58;5.83;;;1.20;;
71916;SDS011;59793;46.506;6.674;2023-08-06T02:27:23;4.33;;;0.90;;
71916;SDS011;59793;46.506;6.674;2023-08-06T02:29:49;2.47;;;1.10;;
71916;SDS011;59793;46.506;6.674;2023-08-06T02:32:14;2.43;;;1.00;;
71916;SDS011;59793;46.506;6.674;2023-08-06T02:34:39;2.67;;;1.10;;
71916;SDS011;59793;46.506;6.674;2023-08-06T02:37:05;2.63;;;1.00;;
71916;SDS011;59793;46.506;6.674;2023-08-06T02:39:30;1.70;;;0.90;;
71916;SDS011;59793;46.506;6.674;2023-08-06T02:41:55;2.17;;;0.80;;
71916;SDS011;59793;46.506;6.674;2023-08-06T02:44:21;2.30;;;0.80;;
71916;SDS011;59793;46.506;6.674;2023-08-06T02:46:46;1.70;;;0.80;;
71916;SDS011;59793;46.506;6.674;2023-08-06T02:49:11;1.33;;;0.70;;
71916;SDS011;59793;46.506;6.674;2023-08-06T02:51:37;1.53;;;0.80;;
71916;SDS011;59793;46.506;6.674;2023-08-06T02:54:02;1.50;;;0.83;;
71916;SDS011;59793;46.506;6.674;2023-08-06T02:56:27;3.27;;;1.00;;
71916;SDS011;59793;46.506;6.674;2023-08-06T02:58:53;1.93;;;0.60;;
71916;SDS011;59793;46.506;6.674;2023-08-06T03:01:18;1.40;;;0.77;;
71916;SDS011;59793;46.506;6.674;2023-08-06T03:03:43;2.00;;;1.00;;
71916;SDS011;59793;46.506;6.674;2023-08-06T03:06:09;2.40;;;1.00;;
71916;SDS011;59793;46.506;6.674;2023-08-06T03:08:34;2.30;;;0.87;;
71916;SDS011;59793;46.506;6.674;2023-08-06T03:10:59;1.63;;;0.70;;
71916;SDS011;59793;46.506;6.674;2023-08-06T03:13:25;1.67;;;0.70;;
71916;SDS011;59793;46.506;6.674;2023-08-06T03:15:57;1.80;;;0.93;;
71916;SDS011;59793;46.506;6.674;2023-08-06T03:18:24;2.33;;;0.93;;
71916;SDS011;59793;46.506;6.674;2023-08-06T03:20:51;2.33;;;1.17;;
71916;SDS011;59793;46.506;6.674;2023-08-06T03:23:16;3.43;;;1.23;;
71916;SDS011;59793;46.506;6.674;2023-08-06T03:25:42;2.47;;;0.90;;
71916;SDS011;59793;46.506;6.674;2023-08-06T03:28:07;3.50;;;1.30;;
71916;SDS011;59793;46.506;6.674;2023-08-06T03:30:33;5.87;;;1.37;;
71916;SDS011;59793;46.506;6.674;2023-08-06T03:32:58;7.43;;;1.63;;
71916;SDS011;59793;46.506;6.674;2023-08-06T03:35:23;4.03;;;1.13;;
71916;SDS011;59793;46.506;6.674;2023-08-06T03:37:49;6.13;;;1.30;;
71916;SDS011;59793;46.506;6.674;2023-08-06T03:40:14;3.30;;;1.07;;
71916;SDS011;59793;46.506;6.674;2023-08-06T03:42:40;7.50;;;2.00;;
71916;SDS011;59793;46.506;6.674;2023-08-06T03:45:06;8.07;;;2.07;;
71916;SDS011;59793;46.506;6.674;2023-08-06T03:47:32;9.57;;;2.03;;
71916;SDS011;59793;46.506;6.674;2023-08-06T03:49:57;11.23;;;3.13;;
71916;SDS011;59793;46.506;6.674;2023-08-06T03:52:23;13.70;;;3.00;;
71916;SDS011;59793;46.506;6.674;2023-08-06T03:54:48;12.40;;;3.00;;
71916;SDS011;59793;46.506;6.674;2023-08-06T03:57:13;15.20;;;3.40;;
71916;SDS011;59793;46.506;6.674;2023-08-06T03:59:39;13.33;;;2.40;;
71916;SDS011;59793;46.506;6.674;2023-08-06T04:02:04;16.20;;;3.57;;
71916;SDS011;59793;46.506;6.674;2023-08-06T04:04:29;12.07;;;2.73;;
71916;SDS011;59793;46.506;6.674;2023-08-06T04:06:55;12.60;;;2.50;;
71916;SDS011;59793;46.506;6.674;2023-08-06T04:09:20;15.63;;;2.50;;
71916;SDS011;59793;46.506;6.674;2023-08-06T04:11:45;7.93;;;2.03;;
71916;SDS011;59793;46.506;6.674;2023-08-06T04:14:11;9.77;;;1.80;;
71916;SDS011;59793;46.506;6.674;2023-08-06T04:16:36;9.57;;;2.40;;
71916;SDS011;59793;46.506;6.674;2023-08-06T04:19:01;14.63;;;2.00;;
71916;SDS011;59793;46.506;6.674;2023-08-06T04:21:27;11.27;;;2.63;;
71916;SDS011;59793;46.506;6.674;2023-08-06T04:23:52;8.50;;;2.63;;
71916;SDS011;59793;46.506;6.674;2023-08-06T04:26:17;12.57;;;2.97;;
71916;SDS011;59793;46.506;6.674;2023-08-06T04:28:42;11.97;;;2.37;;
71916;SDS011;59793;46.506;6.674;2023-08-06T04:31:08;13.47;;;3.83;;
71916;SDS011;59793;46.506;6.674;2023-08-06T04:33:33;10.23;;;2.23;;
71916;SDS011;59793;46.506;6.674;2023-08-06T04:35:59;9.13;;;1.90;;
71916;SDS011;59793;46.506;6.674;2023-08-06T04:38:24;9.73;;;2.27;;
71916;SDS011;59793;46.506;6.674;2023-08-06T04:40:50;7.87;;;1.93;;
71916;SDS011;59793;46.506;6.674;2023-08-06T04:43:16;5.50;;;1.67;;
71916;SDS011;59793;46.506;6.674;2023-08-06T04:45:51;13.10;;;3.17;;
71916;SDS011;59793;46.506;6.674;2023-08-06T04:48:19;9.30;;;2.00;;
71916;SDS011;59793;46.506;6.674;2023-08-06T04:50:44;7.20;;;1.93;;
71916;SDS011;59793;46.506;6.674;2023-08-06T04:53:11;8.18;;;1.63;;
71916;SDS011;59793;46.506;6.674;2023-08-06T04:55:36;11.33;;;2.70;;
71916;SDS011;59793;46.506;6.674;2023-08-06T04:58:01;13.00;;;2.30;;
71916;SDS011;59793;46.506;6.674;2023-08-06T05:00:27;13.73;;;2.73;;
71916;SDS011;59793;46.506;6.674;2023-08-06T05:02:52;10.73;;;2.27;;
71916;SDS011;59793;46.506;6.674;2023-08-06T05:05:17;9.07;;;2.33;;
71916;SDS011;59793;46.506;6.674;2023-08-06T05:07:43;12.73;;;2.30;;
71916;SDS011;59793;46.506;6.674;2023-08-06T05:10:10;6.25;;;1.75;;
71916;SDS011;59793;46.506;6.674;2023-08-06T05:12:35;12.53;;;2.60;;
71916;SDS011;59793;46.506;6.674;2023-08-06T05:15:00;9.93;;;1.87;;
71916;SDS011;59793;46.506;6.674;2023-08-06T05:17:26;9.70;;;2.20;;
71916;SDS011;59793;46.506;6.674;2023-08-06T05:19:51;11.33;;;2.23;;
71916;SDS011;59793;46.506;6.674;2023-08-06T05:22:17;7.37;;;1.87;;
71916;SDS011;59793;46.506;6.674;2023-08-06T05:24:42;10.30;;;1.80;;
71916;SDS011;59793;46.506;6.674;2023-08-06T05:27:07;7.03;;;1.73;;
71916;SDS011;59793;46.506;6.674;2023-08-06T05:29:33;7.40;;;1.93;;
71916;SDS011;59793;46.506;6.674;2023-08-06T05:31:58;7.43;;;1.77;;
71916;SDS011;59793;46.506;6.674;2023-08-06T05:34:23;6.23;;;1.47;;
71916;SDS011;59793;46.506;6.674;2023-08-06T05:36:49;6.90;;;1.63;;
71916;SDS011;59793;46.506;6.674;2023-08-06T05:39:15;5.83;;;0.97;;
71916;SDS011;59793;46.506;6.674;2023-08-06T05:41:40;5.90;;;1.47;;
71916;SDS011;59793;46.506;6.674;2023-08-06T05:44:05;5.53;;;1.30;;
71916;SDS011;59793;46.506;6.674;2023-08-06T05:46:31;9.57;;;1.43;;
71916;SDS011;59793;46.506;6.674;2023-08-06T05:48:56;7.20;;;1.77;;
71916;SDS011;59793;46.506;6.674;2023-08-06T05:51:22;4.43;;;1.30;;
71916;SDS011;59793;46.506;6.674;2023-08-06T05:53:47;5.30;;;1.50;;
71916;SDS011;59793;46.506;6.674;2023-08-06T05:56:14;5.55;;;2.95;;
71916;SDS011;59793;46.506;6.674;2023-08-06T05:58:40;6.77;;;1.10;;
71916;SDS011;59793;46.506;6.674;2023-08-06T06:01:05;2.20;;;0.93;;
71916;SDS011;59793;46.506;6.674;2023-08-06T06:03:31;5.07;;;1.57;;
71916;SDS011;59793;46.506;6.674;2023-08-06T06:05:56;4.93;;;1.53;;
71916;SDS011;59793;46.506;6.674;2023-08-06T06:08:22;5.20;;;1.30;;
71916;SDS011;59793;46.506;6.674;2023-08-06T06:10:47;9.50;;;1.77;;
71916;SDS011;59793;46.506;6.674;2023-08-06T06:13:12;8.63;;;1.80;;
71916;SDS011;59793;46.506;6.674;2023-08-06T06:15:37;4.90;;;1.47;;
71916;SDS011;59793;46.506;6.674;2023-08-06T06:18:03;12.47;;;1.70;;
71916;SDS011;59793;46.506;6.674;2023-08-06T06:20:28;9.10;;;1.90;;
71916;SDS011;59793;46.506;6.674;2023-08-06T06:22:53;6.57;;;1.70;;
71916;SDS011;59793;46.506;6.674;2023-08-06T06:25:19;8.53;;;1.70;;
71916;SDS011;59793;46.506;6.674;2023-08-06T06:27:44;5.43;;;1.73;;
71916;SDS011;59793;46.506;6.674;2023-08-06T06:30:10;6.23;;;1.30;;
71916;SDS011;59793;46.506;6.674;2023-08-06T06:32:37;4.88;;;0.85;;
71916;SDS011;59793;46.506;6.674;2023-08-06T06:35:02;5.57;;;1.30;;
71916;SDS011;59793;46.506;6.674;2023-08-06T06:37:28;4.83;;;1.17;;
71916;SDS011;59793;46.506;6.674;2023-08-06T06:39:53;9.00;;;2.63;;
71916;SDS011;59793;46.506;6.674;2023-08-06T06:42:18;5.17;;;1.03;;
71916;SDS011;59793;46.506;6.674;2023-08-06T06:44:44;3.40;;;1.27;;
71916;SDS011;59793;46.506;6.674;2023-08-06T06:47:09;5.20;;;1.00;;
71916;SDS011;59793;46.506;6.674;2023-08-06T06:49:34;3.97;;;1.17;;
71916;SDS011;59793;46.506;6.674;2023-08-06T06:51:59;11.23;;;1.50;;
71916;SDS011;59793;46.506;6.674;2023-08-06T06:54:25;6.50;;;1.47;;
71916;SDS011;59793;46.506;6.674;2023-08-06T06:56:50;12.03;;;2.53;;
71916;SDS011;59793;46.506;6.674;2023-08-06T06:59:15;7.87;;;1.57;;
71916;SDS011;59793;46.506;6.674;2023-08-06T07:01:41;7.53;;;1.50;;
71916;SDS011;59793;46.506;6.674;2023-08-06T07:04:06;8.13;;;1.67;;
71916;SDS011;59793;46.506;6.674;2023-08-06T07:06:31;5.67;;;1.33;;
71916;SDS011;59793;46.506;6.674;2023-08-06T07:08:57;4.23;;;0.83;;
71916;SDS011;59793;46.506;6.674;2023-08-06T07:11:22;5.13;;;1.17;;
71916;SDS011;59793;46.506;6.674;2023-08-06T07:13:49;3.50;;;0.80;;
71916;SDS011;59793;46.506;6.674;2023-08-06T07:16:15;3.90;;;1.10;;
71916;SDS011;59793;46.506;6.674;2023-08-06T07:18:40;5.33;;;0.80;;
71916;SDS011;59793;46.506;6.674;2023-08-06T07:21:05;2.60;;;0.83;;
71916;SDS011;59793;46.506;6.674;2023-08-06T07:23:31;6.03;;;0.80;;
71916;SDS011;59793;46.506;6.674;2023-08-06T07:25:56;5.13;;;1.10;;
71916;SDS011;59793;46.506;6.674;2023-08-06T07:28:21;4.43;;;1.00;;
71916;SDS011;59793;46.506;6.674;2023-08-06T07:30:47;6.30;;;1.10;;
71916;SDS011;59793;46.506;6.674;2023-08-06T07:33:12;5.40;;;1.30;;
71916;SDS011;59793;46.506;6.674;2023-08-06T07:35:38;2.83;;;1.00;;
71916;SDS011;59793;46.506;6.674;2023-08-06T07:38:04;3.67;;;0.83;;
71916;SDS011;59793;46.506;6.674;2023-08-06T07:40:29;4.40;;;0.70;;
71916;SDS011;59793;46.506;6.674;2023-08-06T07:42:54;3.10;;;0.97;;
71916;SDS011;59793;46.506;6.674;2023-08-06T07:45:20;6.50;;;1.40;;
71916;SDS011;59793;46.506;6.674;2023-08-06T07:47:45;2.83;;;0.80;;
71916;SDS011;59793;46.506;6.674;2023-08-06T07:50:11;2.00;;;0.77;;
71916;SDS011;59793;46.506;6.674;2023-08-06T07:52:37;1.87;;;0.57;;
71916;SDS011;59793;46.506;6.674;2023-08-06T07:55:02;2.23;;;1.10;;
71916;SDS011;59793;46.506;6.674;2023-08-06T07:57:30;4.80;;;0.98;;
71916;SDS011;59793;46.506;6.674;2023-08-06T07:59:56;3.03;;;0.77;;
71916;SDS011;59793;46.506;6.674;2023-08-06T08:02:21;1.60;;;0.50;;
71916;SDS011;59793;46.506;6.674;2023-08-06T08:04:46;2.07;;;0.60;;
71916;SDS011;59793;46.506;6.674;2023-08-06T08:07:12;4.07;;;0.83;;
71916;SDS011;59793;46.506;6.674;2023-08-06T08:09:38;2.53;;;0.53;;
71916;SDS011;59793;46.506;6.674;2023-08-06T08:12:03;0.90;;;0.60;;
71916;SDS011;59793;46.506;6.674;2023-08-06T08:14:29;1.60;;;0.60;;
71916;SDS011;59793;46.506;6.674;2023-08-06T08:17:00;2.15;;;0.65;;
71916;SDS011;59793;46.506;6.674;2023-08-06T08:19:29;4.30;;;0.80;;
71916;SDS011;59793;46.506;6.674;2023-08-06T08:21:55;4.13;;;0.80;;
71916;SDS011;59793;46.506;6.674;2023-08-06T08:24:20;3.63;;;0.63;;
71916;SDS011;59793;46.506;6.674;2023-08-06T08:26:48;1.60;;;0.60;;
71916;SDS011;59793;46.506;6.674;2023-08-06T08:29:14;2.00;;;0.50;;
71916;SDS011;59793;46.506;6.674;2023-08-06T08:31:40;4.07;;;0.57;;
71916;SDS011;59793;46.506;6.674;2023-08-06T08:34:05;2.27;;;0.60;;
71916;SDS011;59793;46.506;6.674;2023-08-06T08:36:31;3.67;;;0.80;;
71916;SDS011;59793;46.506;6.674;2023-08-06T08:38:56;3.33;;;0.70;;
71916;SDS011;59793;46.506;6.674;2023-08-06T08:41:21;0.57;;;0.30;;
71916;SDS011;59793;46.506;6.674;2023-08-06T08:43:48;1.10;;;0.50;;
71916;SDS011;59793;46.506;6.674;2023-08-06T08:46:17;2.85;;;0.70;;
71916;SDS011;59793;46.506;6.674;2023-08-06T08:48:43;0.93;;;0.30;;
71916;SDS011;59793;46.506;6.674;2023-08-06T08:51:09;3.07;;;0.57;;
71916;SDS011;59793;46.506;6.674;2023-08-06T08:53:36;3.50;;;0.60;;
71916;SDS011;59793;46.506;6.674;2023-08-06T08:56:04;2.85;;;1.00;;
71916;SDS011;59793;46.506;6.674;2023-08-06T08:58:30;1.47;;;0.67;;
71916;SDS011;59793;46.506;6.674;2023-08-06T09:00:55;1.53;;;0.53;;
71916;SDS011;59793;46.506;6.674;2023-08-06T09:03:21;1.20;;;0.60;;
71916;SDS011;59793;46.506;6.674;2023-08-06T09:05:48;0.93;;;0.50;;
71916;SDS011;59793;46.506;6.674;2023-08-06T09:08:15;5.35;;;0.90;;
71916;SDS011;59793;46.506;6.674;2023-08-06T09:10:43;3.15;;;0.70;;
71916;SDS011;59793;46.506;6.674;2023-08-06T09:13:13;1.10;;;0.30;;
71916;SDS011;59793;46.506;6.674;2023-08-06T09:15:38;0.80;;;0.40;;
71916;SDS011;59793;46.506;6.674;2023-08-06T09:18:10;1.60;;;0.50;;
71916;SDS011;59793;46.506;6.674;2023-08-06T09:20:38;3.35;;;0.40;;
71916;SDS011;59793;46.506;6.674;2023-08-06T09:23:10;1.38;;;0.40;;
71916;SDS011;59793;46.506;6.674;2023-08-06T09:25:37;1.98;;;0.28;;
71916;SDS011;59793;46.506;6.674;2023-08-06T09:28:06;1.70;;;0.40;;
71916;SDS011;59793;46.506;6.674;2023-08-06T09:30:33;0.60;;;0.37;;
71916;SDS011;59793;46.506;6.674;2023-08-06T09:32:59;3.53;;;0.43;;
71916;SDS011;59793;46.506;6.674;2023-08-06T09:35:27;4.13;;;0.40;;
71916;SDS011;59793;46.506;6.674;2023-08-06T09:37:54;1.38;;;0.30;;
71916;SDS011;59793;46.506;6.674;2023-08-06T09:40:26;2.33;;;0.40;;
71916;SDS011;59793;46.506;6.674;2023-08-06T09:42:53;1.90;;;0.50;;
71916;SDS011;59793;46.506;6.674;2023-08-06T09:45:19;3.63;;;0.40;;
71916;SDS011;59793;46.506;6.674;2023-08-06T09:47:44;0.70;;;0.30;;
71916;SDS011;59793;46.506;6.674;2023-08-06T09:50:19;1.10;;;0.40;;
71916;SDS011;59793;46.506;6.674;2023-08-06T09:52:46;2.17;;;0.40;;
71916;SDS011;59793;46.506;6.674;2023-08-06T09:55:12;0.45;;;0.30;;
71916;SDS011;59793;46.506;6.674;2023-08-06T09:57:38;1.40;;;0.37;;
71916;SDS011;59793;46.506;6.674;2023-08-06T10:00:05;1.35;;;0.40;;
71916;SDS011;59793;46.506;6.674;2023-08-06T10:02:33;0.95;;;0.30;;
71916;SDS011;59793;46.506;6.674;2023-08-06T10:05:00;0.40;;;0.30;;
71916;SDS011;59793;46.506;6.674;2023-08-06T10:07:26;0.82;;;0.30;;
71916;SDS011;59793;46.506;6.674;2023-08-06T10:09:54;0.65;;;0.20;;
71916;SDS011;59793;46.506;6.674;2023-08-06T10:12:20;0.50;;;0.20;;
71916;SDS011;59793;46.506;6.674;2023-08-06T10:14:46;0.60;;;0.30;;
71916;SDS011;59793;46.506;6.674;2023-08-06T10:17:14;0.35;;;0.20;;
71916;SDS011;59793;46.506;6.674;2023-08-06T10:19:39;0.63;;;0.30;;
71916;SDS011;59793;46.506;6.674;2023-08-06T10:22:09;1.13;;;0.30;;
71916;SDS011;59793;46.506;6.674;2023-08-06T10:24:56;0.85;;;0.35;;
71916;SDS011;59793;46.506;6.674;2023-08-06T10:27:37;0.55;;;0.30;;
71916;SDS011;59793;46.506;6.674;2023-08-06T10:32:48;0.80;;;0.25;;
71916;SDS011;59793;46.506;6.674;2023-08-06T10:35:27;0.73;;;0.30;;
71916;SDS011;59793;46.506;6.674;2023-08-06T10:37:53;0.93;;;0.32;;
71916;SDS011;59793;46.506;6.674;2023-08-06T10:40:22;0.40;;;0.25;;
71916;SDS011;59793;46.506;6.674;2023-08-06T10:42:48;3.35;;;1.27;;
71916;SDS011;59793;46.506;6.674;2023-08-06T10:47:41;0.65;;;0.35;;
71916;SDS011;59793;46.506;6.674;2023-08-06T10:52:41;0.55;;;0.38;;
71916;SDS011;59793;46.506;6.674;2023-08-06T10:55:07;3.40;;;0.93;;
71916;SDS011;59793;46.506;6.674;2023-08-06T10:59:59;1.92;;;0.50;;
71916;SDS011;59793;46.506;6.674;2023-08-06T11:02:24;0.30;;;0.30;;
71916;SDS011;59793;46.506;6.674;2023-08-06T11:04:50;1.67;;;0.37;;
71916;SDS011;59793;46.506;6.674;2023-08-06T11:07:16;1.30;;;0.30;;
71916;SDS011;59793;46.506;6.674;2023-08-06T11:09:41;0.67;;;0.30;;
71916;SDS011;59793;46.506;6.674;2023-08-06T11:12:10;0.70;;;0.20;;
71916;SDS011;59793;46.506;6.674;2023-08-06T11:14:36;0.30;;;0.30;;
71916;SDS011;59793;46.506;6.674;2023-08-06T11:17:01;0.60;;;0.30;;
71916;SDS011;59793;46.506;6.674;2023-08-06T11:19:27;0.33;;;0.20;;
71916;SDS011;59793;46.506;6.674;2023-08-06T11:21:52;1.53;;;0.30;;
71916;SDS011;59793;46.506;6.674;2023-08-06T11:24:19;0.68;;;0.30;;
71916;SDS011;59793;46.506;6.674;2023-08-06T11:26:45;0.27;;;0.23;;
71916;SDS011;59793;46.506;6.674;2023-08-06T11:29:10;1.03;;;0.30;;
71916;SDS011;59793;46.506;6.674;2023-08-06T11:31:36;0.80;;;0.50;;
71916;SDS011;59793;46.506;6.674;2023-08-06T11:34:01;1.50;;;0.57;;
71916;SDS011;59793;46.506;6.674;2023-08-06T11:36:30;1.10;;;0.37;;
71916;SDS011;59793;46.506;6.674;2023-08-06T11:39:01;1.85;;;0.38;;
71916;SDS011;59793;46.506;6.674;2023-08-06T11:41:28;1.52;;;0.60;;
71916;SDS011;59793;46.506;6.674;2023-08-06T11:43:54;0.75;;;0.30;;
71916;SDS011;59793;46.506;6.674;2023-08-06T11:46:19;1.00;;;0.50;;
71916;SDS011;59793;46.506;6.674;2023-08-06T11:48:54;0.93;;;0.40;;
71916;SDS011;59793;46.506;6.674;2023-08-06T11:51:24;1.02;;;0.35;;
71916;SDS011;59793;46.506;6.674;2023-08-06T11:53:55;0.73;;;0.40;;
71916;SDS011;59793;46.506;6.674;2023-08-06T11:56:21;0.85;;;0.40;;
71916;SDS011;59793;46.506;6.674;2023-08-06T11:58:47;1.00;;;0.50;;
71916;SDS011;59793;46.506;6.674;2023-08-06T12:01:13;0.77;;;0.37;;
71916;SDS011;59793;46.506;6.674;2023-08-06T12:03:41;1.70;;;0.40;;
71916;SDS011;59793;46.506;6.674;2023-08-06T12:06:06;0.43;;;0.28;;
71916;SDS011;59793;46.506;6.674;2023-08-06T12:08:35;1.85;;;0.35;;
71916;SDS011;59793;46.506;6.674;2023-08-06T12:11:00;1.37;;;0.40;;
71916;SDS011;59793;46.506;6.674;2023-08-06T12:13:25;1.33;;;0.30;;
71916;SDS011;59793;46.506;6.674;2023-08-06T12:15:51;1.73;;;0.30;;
71916;SDS011;59793;46.506;6.674;2023-08-06T12:18:18;3.65;;;0.47;;
71916;SDS011;59793;46.506;6.674;2023-08-06T12:20:44;1.13;;;0.47;;
71916;SDS011;59793;46.506;6.674;2023-08-06T12:23:09;1.23;;;0.50;;
71916;SDS011;59793;46.506;6.674;2023-08-06T12:25:35;0.50;;;0.30;;
71916;SDS011;59793;46.506;6.674;2023-08-06T12:28:00;1.60;;;0.30;;
71916;SDS011;59793;46.506;6.674;2023-08-06T12:30:25;0.63;;;0.20;;
71916;SDS011;59793;46.506;6.674;2023-08-06T12:32:51;0.97;;;0.47;;
71916;SDS011;59793;46.506;6.674;2023-08-06T12:35:16;0.77;;;0.30;;
71916;SDS011;59793;46.506;6.674;2023-08-06T12:37:42;0.93;;;0.40;;
71916;SDS011;59793;46.506;6.674;2023-08-06T12:40:08;1.65;;;0.25;;
71916;SDS011;59793;46.506;6.674;2023-08-06T12:42:34;2.23;;;0.40;;
71916;SDS011;59793;46.506;6.674;2023-08-06T12:44:59;1.47;;;0.57;;
71916;SDS011;59793;46.506;6.674;2023-08-06T12:47:25;2.33;;;0.33;;
71916;SDS011;59793;46.506;6.674;2023-08-06T12:49:50;0.77;;;0.40;;
71916;SDS011;59793;46.506;6.674;2023-08-06T12:52:15;0.90;;;0.30;;
71916;SDS011;59793;46.506;6.674;2023-08-06T12:54:41;1.00;;;0.30;;
71916;SDS011;59793;46.506;6.674;2023-08-06T12:57:07;4.13;;;0.40;;
71916;SDS011;59793;46.506;6.674;2023-08-06T12:59:32;0.97;;;0.33;;
71916;SDS011;59793;46.506;6.674;2023-08-06T13:01:58;1.77;;;0.60;;
71916;SDS011;59793;46.506;6.674;2023-08-06T13:04:24;0.73;;;0.33;;
71916;SDS011;59793;46.506;6.674;2023-08-06T13:06:49;1.10;;;0.43;;
71916;SDS011;59793;46.506;6.674;2023-08-06T13:09:14;0.40;;;0.27;;
71916;SDS011;59793;46.506;6.674;2023-08-06T13:11:40;0.80;;;0.30;;
71916;SDS011;59793;46.506;6.674;2023-08-06T13:14:10;0.40;;;0.30;;
71916;SDS011;59793;46.506;6.674;2023-08-06T13:16:38;0.63;;;0.30;;
71916;SDS011;59793;46.506;6.674;2023-08-06T13:19:04;1.58;;;0.50;;
71916;SDS011;59793;46.506;6.674;2023-08-06T13:21:35;0.85;;;0.30;;
71916;SDS011;59793;46.506;6.674;2023-08-06T13:24:23;0.82;;;0.40;;
71916;SDS011;59793;46.506;6.674;2023-08-06T13:26:48;0.20;;;0.20;;
71916;SDS011;59793;46.506;6.674;2023-08-06T13:29:14;0.50;;;0.20;;
71916;SDS011;59793;46.506;6.674;2023-08-06T13:31:39;0.37;;;0.20;;
71916;SDS011;59793;46.506;6.674;2023-08-06T13:34:04;0.40;;;0.30;;
71916;SDS011;59793;46.506;6.674;2023-08-06T13:36:30;1.40;;;0.30;;
71916;SDS011;59793;46.506;6.674;2023-08-06T13:38:56;1.05;;;0.47;;
71916;SDS011;59793;46.506;6.674;2023-08-06T13:41:22;0.10;;;0.10;;
71916;SDS011;59793;46.506;6.674;2023-08-06T13:43:48;1.25;;;0.60;;
71916;SDS011;59793;46.506;6.674;2023-08-06T13:46:14;1.37;;;0.47;;
71916;SDS011;59793;46.506;6.674;2023-08-06T13:48:43;0.75;;;0.22;;
71916;SDS011;59793;46.506;6.674;2023-08-06T13:51:10;0.52;;;0.30;;
71916;SDS011;59793;46.506;6.674;2023-08-06T13:53:37;0.70;;;0.45;;
71916;SDS011;59793;46.506;6.674;2023-08-06T13:56:03;2.67;;;0.40;;
71916;SDS011;59793;46.506;6.674;2023-08-06T13:58:29;1.35;;;0.50;;
71916;SDS011;59793;46.506;6.674;2023-08-06T14:00:54;0.73;;;0.40;;
71916;SDS011;59793;46.506;6.674;2023-08-06T14:05:47;1.65;;;0.40;;
71916;SDS011;59793;46.506;6.674;2023-08-06T14:08:13;2.58;;;0.50;;
71916;SDS011;59793;46.506;6.674;2023-08-06T14:10:38;1.00;;;0.50;;
71916;SDS011;59793;46.506;6.674;2023-08-06T14:13:04;2.23;;;0.60;;
71916;SDS011;59793;46.506;6.674;2023-08-06T14:15:29;3.63;;;0.60;;
71916;SDS011;59793;46.506;6.674;2023-08-06T14:17:54;0.67;;;0.47;;
71916;SDS011;59793;46.506;6.674;2023-08-06T14:20:20;0.93;;;0.50;;
71916;SDS011;59793;46.506;6.674;2023-08-06T14:22:45;0.37;;;0.30;;
71916;SDS011;59793;46.506;6.674;2023-08-06T14:25:10;1.03;;;0.60;;
71916;SDS011;59793;46.506;6.674;2023-08-06T14:27:36;1.37;;;0.50;;
71916;SDS011;59793;46.506;6.674;2023-08-06T14:30:03;2.40;;;1.33;;
71916;SDS011;59793;46.506;6.674;2023-08-06T14:32:30;2.50;;;0.30;;
71916;SDS011;59793;46.506;6.674;2023-08-06T14:34:56;0.10;;;0.10;;
71916;SDS011;59793;46.506;6.674;2023-08-06T14:37:22;2.47;;;0.70;;
71916;SDS011;59793;46.506;6.674;2023-08-06T14:39:47;1.03;;;0.40;;
71916;SDS011;59793;46.506;6.674;2023-08-06T14:42:14;1.27;;;0.57;;
71916;SDS011;59793;46.506;6.674;2023-08-06T14:44:39;1.08;;;0.30;;
71916;SDS011;59793;46.506;6.674;2023-08-06T14:47:06;0.93;;;0.55;;
71916;SDS011;59793;46.506;6.674;2023-08-06T14:49:31;0.90;;;0.50;;
71916;SDS011;59793;46.506;6.674;2023-08-06T14:51:56;1.03;;;0.63;;
71916;SDS011;59793;46.506;6.674;2023-08-06T14:54:25;1.80;;;0.52;;
71916;SDS011;59793;46.506;6.674;2023-08-06T14:56:51;1.05;;;0.38;;
71916;SDS011;59793;46.506;6.674;2023-08-06T14:59:16;1.90;;;0.63;;
71916;SDS011;59793;46.506;6.674;2023-08-06T15:01:41;0.40;;;0.30;;
71916;SDS011;59793;46.506;6.674;2023-08-06T15:04:07;1.33;;;0.40;;